Aviation Digital Data Service (ADDS)

Output produced by METARs form (2103 UTC 23 January 2019)
found at http://www.aviationweather.gov/metar/data/
 
Forecast for: DNCA (CALABAR , NG)
Text: TAF DNCA 231545Z 2318/2424 28004KT 7000 BKN009
Forecast period: 1800 UTC 23 January 2019 to 0000 UTC 25 January 2019
Forecast type: FROM: standard forecast or significant change
Winds: from the W (280 degrees) at 5 MPH (4 knots; 2.1 m/s)
Visibility: 4 miles (7 km)
Ceiling: 900 feet AGL
Clouds: broken clouds at 900 feet AGL
Weather: no significant weather forecast for this period
Text: TEMPO 2403/2407 5000 BR
Forecast period: 0300 to 0700 UTC 24 January 2019
Forecast type: TEMPORARY: The following changes expected for less than half the time period
Visibility: 3 miles (5 km)
Ceiling: unknown
Clouds: missing
Weather: BR  (mist)